createdAt,value
2022-08-24T00:00:09.165Z,19.51
2022-08-24T00:01:09.167Z,19.48
2022-08-24T00:02:11.847Z,19.48
2022-08-24T00:03:09.357Z,19.40
2022-08-24T00:04:09.171Z,19.45
2022-08-24T00:05:13.983Z,19.44
2022-08-24T00:06:09.176Z,19.40
2022-08-24T00:07:19.249Z,19.37
2022-08-24T00:08:09.181Z,19.41
2022-08-24T00:09:09.184Z,19.30
2022-08-24T00:10:09.183Z,19.41
2022-08-24T00:11:09.190Z,19.36
2022-08-24T00:12:09.189Z,19.34
2022-08-24T00:13:09.199Z,19.30
2022-08-24T00:14:09.195Z,19.37
2022-08-24T00:15:09.197Z,19.24
2022-08-24T00:16:09.233Z,19.22
2022-08-24T00:17:09.204Z,19.24
2022-08-24T00:18:09.203Z,19.22
2022-08-24T00:19:09.206Z,19.18
2022-08-24T00:20:09.204Z,19.15
2022-08-24T00:21:09.209Z,19.11
2022-08-24T00:22:09.211Z,19.19
2022-08-24T00:23:09.214Z,19.12
2022-08-24T00:24:09.218Z,19.14
2022-08-24T00:25:09.221Z,18.98
2022-08-24T00:26:09.220Z,19.09
2022-08-24T00:27:09.222Z,19.04
2022-08-24T00:28:09.223Z,19.08
2022-08-24T00:29:09.231Z,19.07
2022-08-24T00:30:09.234Z,19.07
2022-08-24T00:31:09.229Z,19.08
2022-08-24T00:32:11.485Z,19.02
2022-08-24T00:33:09.233Z,19.15
2022-08-24T00:34:09.236Z,19.00
2022-08-24T00:35:09.236Z,19.09
2022-08-24T00:36:09.244Z,19.08
2022-08-24T00:37:09.240Z,19.09
2022-08-24T00:38:09.246Z,18.88
2022-08-24T00:39:09.244Z,18.86
2022-08-24T00:40:09.349Z,18.93
2022-08-24T00:41:09.253Z,18.89
2022-08-24T00:42:09.253Z,18.90
2022-08-24T00:43:09.253Z,18.86
2022-08-24T00:44:09.257Z,18.86
2022-08-24T00:45:09.261Z,18.86
2022-08-24T00:46:09.339Z,18.84
2022-08-24T00:47:09.261Z,18.86
2022-08-24T00:48:09.264Z,18.90
2022-08-24T00:49:09.266Z,18.90
2022-08-24T00:50:09.267Z,18.88
2022-08-24T00:51:09.278Z,18.80
2022-08-24T00:52:09.277Z,18.78
2022-08-24T00:53:09.274Z,18.74
2022-08-24T00:54:09.277Z,18.80
2022-08-24T00:55:09.276Z,18.77
2022-08-24T00:56:09.283Z,18.80
2022-08-24T00:57:09.281Z,18.84
2022-08-24T00:58:11.191Z,18.77
2022-08-24T00:59:09.287Z,18.70
2022-08-24T01:00:09.290Z,18.80
2022-08-24T01:01:09.413Z,18.70
2022-08-24T01:02:15.314Z,18.81
2022-08-24T01:03:09.293Z,18.83
2022-08-24T01:04:09.296Z,18.80
2022-08-24T01:05:09.296Z,18.93
2022-08-24T01:06:09.302Z,18.93
2022-08-24T01:07:09.299Z,18.88
2022-08-24T01:08:09.306Z,18.95
2022-08-24T01:09:09.311Z,18.92
2022-08-24T01:10:09.307Z,18.86
2022-08-24T01:11:09.306Z,18.83
2022-08-24T01:12:09.312Z,18.78
2022-08-24T01:13:09.314Z,18.81
2022-08-24T01:14:09.314Z,18.81
2022-08-24T01:15:09.317Z,18.78
2022-08-24T01:16:09.353Z,18.80
2022-08-24T01:17:09.319Z,18.75
2022-08-24T01:18:09.323Z,18.73
2022-08-24T01:19:09.324Z,18.73
2022-08-24T01:20:09.326Z,18.71
2022-08-24T01:21:09.327Z,18.75
2022-08-24T01:22:09.328Z,18.83
2022-08-24T01:23:09.333Z,18.77
2022-08-24T01:24:09.333Z,18.89
2022-08-24T01:25:09.338Z,18.96
2022-08-24T01:26:09.337Z,18.89
2022-08-24T01:27:09.338Z,18.90
2022-08-24T01:28:09.340Z,18.90
2022-08-24T01:29:09.343Z,18.89
2022-08-24T01:30:09.346Z,18.83
2022-08-24T01:31:09.372Z,18.80
2022-08-24T01:32:09.353Z,18.75
2022-08-24T01:33:09.349Z,18.78
2022-08-24T01:34:09.358Z,18.62
2022-08-24T01:35:09.354Z,18.58
2022-08-24T01:36:09.359Z,18.53
2022-08-24T01:37:09.358Z,18.45
2022-08-24T01:38:09.359Z,18.45
2022-08-24T01:39:09.360Z,18.41
2022-08-24T01:40:09.430Z,18.40
2022-08-24T01:41:09.365Z,18.40
2022-08-24T01:42:09.365Z,18.31
2022-08-24T01:43:09.370Z,18.34
2022-08-24T01:44:09.373Z,18.37
2022-08-24T01:45:09.371Z,18.41
2022-08-24T01:46:09.462Z,18.34
2022-08-24T01:47:09.374Z,18.37
2022-08-24T01:48:09.382Z,18.41
2022-08-24T01:49:09.381Z,18.40
2022-08-24T01:50:09.381Z,18.28
2022-08-24T01:51:11.935Z,18.29
2022-08-24T01:52:09.385Z,18.22
2022-08-24T01:53:09.385Z,18.25
2022-08-24T01:54:09.387Z,18.18
2022-08-24T01:55:09.390Z,18.11
2022-08-24T01:56:09.390Z,18.20
2022-08-24T01:57:09.391Z,18.22
2022-08-24T01:58:09.645Z,18.25
2022-08-24T01:59:09.393Z,18.22
2022-08-24T02:00:09.397Z,18.20
2022-08-24T02:01:09.399Z,18.23
2022-08-24T02:02:09.508Z,18.19
2022-08-24T02:03:09.445Z,18.20
2022-08-24T02:04:09.550Z,18.33
2022-08-24T02:05:09.403Z,18.31
2022-08-24T02:06:09.404Z,18.31
2022-08-24T02:07:09.407Z,18.34
2022-08-24T02:08:09.411Z,18.23
2022-08-24T02:09:09.410Z,18.23
2022-08-24T02:10:09.415Z,18.15
2022-08-24T02:11:09.416Z,18.10
2022-08-24T02:12:09.418Z,18.10
2022-08-24T02:13:09.419Z,18.10
2022-08-24T02:14:09.418Z,18.05
2022-08-24T02:15:09.421Z,17.94
2022-08-24T02:16:09.515Z,17.90
2022-08-24T02:17:09.428Z,17.95
2022-08-24T02:18:15.685Z,17.92
2022-08-24T02:19:09.428Z,18.01
2022-08-24T02:20:09.429Z,17.95
2022-08-24T02:21:09.436Z,17.95
2022-08-24T02:22:09.435Z,17.87
2022-08-24T02:23:09.440Z,18.00
2022-08-24T02:24:09.436Z,17.98
2022-08-24T02:25:09.437Z,17.90
2022-08-24T02:26:09.445Z,17.83
2022-08-24T02:27:09.439Z,17.78
2022-08-24T02:28:09.443Z,17.82
2022-08-24T02:29:09.443Z,17.76
2022-08-24T02:30:09.448Z,17.79
2022-08-24T02:31:09.512Z,17.89
2022-08-24T02:32:09.453Z,17.92
2022-08-24T02:33:09.447Z,17.86
2022-08-24T02:34:09.455Z,17.98
2022-08-24T02:35:09.451Z,18.00
2022-08-24T02:36:26.159Z,18.00
2022-08-24T02:37:09.455Z,18.10
2022-08-24T02:38:09.457Z,18.00
2022-08-24T02:39:09.457Z,18.10
2022-08-24T02:40:09.529Z,17.98
2022-08-24T02:41:09.461Z,18.07
2022-08-24T02:42:09.468Z,18.07
2022-08-24T02:43:09.467Z,18.07
2022-08-24T02:44:09.465Z,18.10
2022-08-24T02:45:09.469Z,18.07
2022-08-24T02:46:09.543Z,18.01
2022-08-24T02:47:09.472Z,18.03
2022-08-24T02:48:09.471Z,17.95
2022-08-24T02:49:11.902Z,17.94
2022-08-24T02:50:09.473Z,17.98
2022-08-24T02:51:09.474Z,17.80
2022-08-24T02:52:09.480Z,17.87
2022-08-24T02:53:09.478Z,17.85
2022-08-24T02:54:09.483Z,17.76
2022-08-24T02:55:09.484Z,17.76
2022-08-24T02:56:09.484Z,17.70
2022-08-24T02:57:09.484Z,17.68
2022-08-24T02:58:09.738Z,17.63
2022-08-24T02:59:09.489Z,17.59
2022-08-24T03:00:10.377Z,17.63
2022-08-24T03:01:17.517Z,17.63
2022-08-24T03:02:09.495Z,17.60
2022-08-24T03:03:09.579Z,17.60
2022-08-24T03:04:09.501Z,17.64
2022-08-24T03:05:12.299Z,17.63
2022-08-24T03:06:09.498Z,17.57
2022-08-24T03:07:09.521Z,17.67
2022-08-24T03:08:09.519Z,17.65
2022-08-24T03:09:09.506Z,17.70
2022-08-24T03:10:09.505Z,17.78
2022-08-24T03:11:09.503Z,17.83
2022-08-24T03:12:09.506Z,17.83
2022-08-24T03:13:09.508Z,17.82
2022-08-24T03:14:10.263Z,17.82
2022-08-24T03:15:09.507Z,17.79
2022-08-24T03:16:09.579Z,17.86
2022-08-24T03:17:09.512Z,17.76
2022-08-24T03:18:09.521Z,17.74
2022-08-24T03:19:09.516Z,17.74
2022-08-24T03:20:09.515Z,17.74
2022-08-24T03:21:09.523Z,17.68
2022-08-24T03:22:09.522Z,17.72
2022-08-24T03:23:09.519Z,17.70
2022-08-24T03:24:09.524Z,17.68
2022-08-24T03:25:09.522Z,17.67
2022-08-24T03:26:09.530Z,17.68
2022-08-24T03:27:09.525Z,17.68
2022-08-24T03:28:11.166Z,17.68
2022-08-24T03:29:09.529Z,17.65
2022-08-24T03:30:09.531Z,17.70
2022-08-24T03:31:09.603Z,17.71
2022-08-24T03:32:09.535Z,17.63
2022-08-24T03:33:09.535Z,17.71
2022-08-24T03:34:09.534Z,17.59
2022-08-24T03:35:09.535Z,17.63
2022-08-24T03:36:13.958Z,17.56
2022-08-24T03:37:09.542Z,17.64
2022-08-24T03:38:09.541Z,17.59
2022-08-24T03:39:09.543Z,17.54
2022-08-24T03:40:12.148Z,17.52
2022-08-24T03:41:09.546Z,17.56
2022-08-24T03:42:09.548Z,17.56
2022-08-24T03:43:09.555Z,17.54
2022-08-24T03:44:09.549Z,17.56
2022-08-24T03:45:09.551Z,17.52
2022-08-24T03:46:09.616Z,17.46
2022-08-24T03:47:09.553Z,17.49
2022-08-24T03:48:09.555Z,17.57
2022-08-24T03:49:09.556Z,17.52
2022-08-24T03:50:09.557Z,17.56
2022-08-24T03:51:09.555Z,17.48
2022-08-24T03:52:09.558Z,17.54
2022-08-24T03:53:09.568Z,17.54
2022-08-24T03:54:09.568Z,17.52
2022-08-24T03:55:09.566Z,17.52
2022-08-24T03:56:09.568Z,17.51
2022-08-24T03:57:09.565Z,17.49
2022-08-24T03:58:09.569Z,17.39
2022-08-24T03:59:09.577Z,17.45
2022-08-24T04:00:09.569Z,17.42
2022-08-24T04:01:09.723Z,17.45
2022-08-24T04:02:10.289Z,17.45
2022-08-24T04:03:09.570Z,17.51
2022-08-24T04:04:09.574Z,17.52
2022-08-24T04:05:09.574Z,17.57
2022-08-24T04:06:09.576Z,17.60
2022-08-24T04:07:09.576Z,17.57
2022-08-24T04:08:09.580Z,17.60
2022-08-24T04:09:09.577Z,17.67
2022-08-24T04:10:09.583Z,17.70
2022-08-24T04:11:09.582Z,17.74
2022-08-24T04:12:09.584Z,17.71
2022-08-24T04:13:09.584Z,17.70
2022-08-24T04:14:12.157Z,17.57
2022-08-24T04:15:09.584Z,17.59
2022-08-24T04:16:09.643Z,17.52
2022-08-24T04:17:09.588Z,17.56
2022-08-24T04:18:09.594Z,17.48
2022-08-24T04:19:09.592Z,17.54
2022-08-24T04:20:09.594Z,17.38
2022-08-24T04:21:09.596Z,17.36
2022-08-24T04:22:09.597Z,17.38
2022-08-24T04:23:13.037Z,17.31
2022-08-24T04:24:09.600Z,17.36
2022-08-24T04:25:09.939Z,17.26
2022-08-24T04:26:09.600Z,17.29
2022-08-24T04:27:09.598Z,17.29
2022-08-24T04:28:09.605Z,17.31
2022-08-24T04:29:09.604Z,17.36
2022-08-24T04:30:09.605Z,17.38
2022-08-24T04:31:09.605Z,17.36
2022-08-24T04:32:09.688Z,17.38
2022-08-24T04:33:09.612Z,17.26
2022-08-24T04:34:09.610Z,17.23
2022-08-24T04:35:09.612Z,17.16
2022-08-24T04:36:09.612Z,17.16
2022-08-24T04:37:11.453Z,17.14
2022-08-24T04:38:09.616Z,17.16
2022-08-24T04:39:09.616Z,17.22
2022-08-24T04:40:09.706Z,17.23
2022-08-24T04:41:09.619Z,17.23
2022-08-24T04:42:09.622Z,17.23
2022-08-24T04:43:09.617Z,17.23
2022-08-24T04:44:09.627Z,17.26
2022-08-24T04:45:09.622Z,17.33
2022-08-24T04:46:09.684Z,17.36
2022-08-24T04:47:09.628Z,17.38
2022-08-24T04:48:09.628Z,17.36
2022-08-24T04:49:09.629Z,17.36
2022-08-24T04:50:09.630Z,17.36
2022-08-24T04:51:13.816Z,17.36
2022-08-24T04:52:09.628Z,17.34
2022-08-24T04:53:09.629Z,17.36
2022-08-24T04:54:09.656Z,17.29
2022-08-24T04:55:09.643Z,17.34
2022-08-24T04:56:09.641Z,17.36
2022-08-24T04:57:10.974Z,17.36
2022-08-24T04:58:09.635Z,17.39
2022-08-24T04:59:10.089Z,17.31
2022-08-24T05:00:09.654Z,17.33
2022-08-24T05:01:09.772Z,17.38
2022-08-24T05:02:09.686Z,17.38
2022-08-24T05:03:09.642Z,17.38
2022-08-24T05:04:09.641Z,17.39
2022-08-24T05:05:09.647Z,17.34
2022-08-24T05:06:09.642Z,17.42
2022-08-24T05:07:09.649Z,17.31
2022-08-24T05:08:09.649Z,17.44
2022-08-24T05:09:09.714Z,17.48
2022-08-24T05:10:09.648Z,17.45
2022-08-24T05:11:09.654Z,17.46
2022-08-24T05:12:09.651Z,17.39
2022-08-24T05:13:09.653Z,17.52
2022-08-24T05:14:09.694Z,17.41
2022-08-24T05:15:09.652Z,17.41
2022-08-24T05:16:09.674Z,17.41
2022-08-24T05:17:10.545Z,17.38
2022-08-24T05:18:09.654Z,17.33
2022-08-24T05:19:09.659Z,17.36
2022-08-24T05:20:09.658Z,17.44
2022-08-24T05:21:09.662Z,17.42
2022-08-24T05:22:09.663Z,17.52
2022-08-24T05:23:09.957Z,17.54
2022-08-24T05:24:09.663Z,17.54
2022-08-24T05:25:09.669Z,17.56
2022-08-24T05:26:09.669Z,17.63
2022-08-24T05:27:09.676Z,17.68
2022-08-24T05:28:09.666Z,17.64
2022-08-24T05:29:09.674Z,17.72
2022-08-24T05:30:09.722Z,17.67
2022-08-24T05:31:09.766Z,17.70
2022-08-24T05:32:09.721Z,17.68
2022-08-24T05:33:09.724Z,17.76
2022-08-24T05:34:09.724Z,17.74
2022-08-24T05:35:09.724Z,17.76
2022-08-24T05:36:09.725Z,17.87
2022-08-24T05:37:09.726Z,17.86
2022-08-24T05:38:09.725Z,17.85
2022-08-24T05:39:11.501Z,17.83
2022-08-24T05:40:09.829Z,17.89
2022-08-24T05:41:09.733Z,18.00
2022-08-24T05:42:09.683Z,17.98
2022-08-24T05:43:09.684Z,18.08
2022-08-24T05:44:09.733Z,18.10
2022-08-24T05:45:09.686Z,18.15
2022-08-24T05:46:09.788Z,18.18
2022-08-24T05:47:09.688Z,18.19
2022-08-24T05:48:09.688Z,18.22
2022-08-24T05:49:09.691Z,18.25
2022-08-24T05:50:09.689Z,18.26
2022-08-24T05:51:09.695Z,18.26
2022-08-24T05:52:09.692Z,18.23
2022-08-24T05:53:09.698Z,18.29
2022-08-24T05:54:09.694Z,18.31
2022-08-24T05:55:09.703Z,18.34
2022-08-24T05:56:09.697Z,18.37
2022-08-24T05:57:09.701Z,18.38
2022-08-24T05:58:10.969Z,18.38
2022-08-24T05:59:10.154Z,18.41
2022-08-24T06:00:09.703Z,18.45
2022-08-24T06:01:09.707Z,18.40
2022-08-24T06:02:09.815Z,18.45
2022-08-24T06:03:14.583Z,18.53
2022-08-24T06:04:09.709Z,18.49
2022-08-24T06:05:09.712Z,18.53
2022-08-24T06:06:09.710Z,18.55
2022-08-24T06:07:09.713Z,18.58
2022-08-24T06:08:09.715Z,18.70
2022-08-24T06:09:09.714Z,18.77
2022-08-24T06:10:34.971Z,18.71
2022-08-24T06:11:09.715Z,18.78
2022-08-24T06:12:09.718Z,18.73
2022-08-24T06:13:09.722Z,18.80
2022-08-24T06:14:09.724Z,18.81
2022-08-24T06:15:09.732Z,18.84
2022-08-24T06:16:21.916Z,18.86
2022-08-24T06:17:09.842Z,18.88
2022-08-24T06:18:09.827Z,18.92
2022-08-24T06:19:09.728Z,18.95
2022-08-24T06:20:09.727Z,18.92
2022-08-24T06:21:09.734Z,18.92
2022-08-24T06:22:09.732Z,19.07
2022-08-24T06:23:09.735Z,19.04
2022-08-24T06:24:09.731Z,19.04
2022-08-24T06:25:09.738Z,19.11
2022-08-24T06:26:14.664Z,19.12
2022-08-24T06:27:09.741Z,19.11
2022-08-24T06:28:09.763Z,19.12
2022-08-24T06:29:09.745Z,19.15
2022-08-24T06:30:09.742Z,19.21
2022-08-24T06:31:09.929Z,19.29
2022-08-24T06:32:09.759Z,19.19
2022-08-24T06:33:09.745Z,19.26
2022-08-24T06:34:09.750Z,19.30
2022-08-24T06:35:11.413Z,19.36
2022-08-24T06:36:09.749Z,19.34
2022-08-24T06:37:09.756Z,19.31
2022-08-24T06:38:09.757Z,19.36
2022-08-24T06:39:10.112Z,19.34
2022-08-24T06:40:09.830Z,19.34
2022-08-24T06:41:09.759Z,19.40
2022-08-24T06:42:09.758Z,19.39
2022-08-24T06:43:09.761Z,19.52
2022-08-24T06:44:09.765Z,19.47
2022-08-24T06:45:09.772Z,19.40
2022-08-24T06:46:09.792Z,19.41
2022-08-24T06:47:09.840Z,19.49
2022-08-24T06:48:09.767Z,19.48
2022-08-24T06:49:09.773Z,19.45
2022-08-24T06:50:09.773Z,19.52
2022-08-24T06:51:09.788Z,19.56
2022-08-24T06:52:09.777Z,19.55
2022-08-24T06:53:09.778Z,19.51
2022-08-24T06:54:09.779Z,19.66
2022-08-24T06:55:09.784Z,19.69
2022-08-24T06:56:09.780Z,19.76
2022-08-24T06:57:09.788Z,19.77
2022-08-24T06:58:09.785Z,19.71
2022-08-24T06:59:09.789Z,19.71
2022-08-24T07:00:09.790Z,19.81
2022-08-24T07:01:09.798Z,19.81
2022-08-24T07:02:09.835Z,19.84
2022-08-24T07:03:09.831Z,20.00
2022-08-24T07:04:10.247Z,19.88
2022-08-24T07:05:09.801Z,20.02
2022-08-24T07:06:09.801Z,20.04
2022-08-24T07:07:09.801Z,20.00
2022-08-24T07:08:09.801Z,20.06
2022-08-24T07:09:09.806Z,20.10
2022-08-24T07:10:09.806Z,20.14
2022-08-24T07:11:09.806Z,20.14
2022-08-24T07:12:09.812Z,20.21
2022-08-24T07:13:09.819Z,20.25
2022-08-24T07:14:09.815Z,20.21
2022-08-24T07:15:16.555Z,20.28
2022-08-24T07:16:09.882Z,20.29
2022-08-24T07:17:09.824Z,20.37
2022-08-24T07:18:09.824Z,20.40
2022-08-24T07:19:09.825Z,20.40
2022-08-24T07:20:09.826Z,20.44
2022-08-24T07:21:09.827Z,20.50
2022-08-24T07:22:09.828Z,20.48
2022-08-24T07:23:09.831Z,20.58
2022-08-24T07:24:09.836Z,20.56
2022-08-24T07:25:09.838Z,20.62
2022-08-24T07:26:09.835Z,20.60
2022-08-24T07:27:09.844Z,20.69
2022-08-24T07:28:11.070Z,20.78
2022-08-24T07:29:25.062Z,20.80
2022-08-24T07:30:26.598Z,20.77
2022-08-24T07:31:09.907Z,20.87
2022-08-24T07:32:09.848Z,20.93
2022-08-24T07:33:09.858Z,21.00
2022-08-24T07:34:09.853Z,20.92
2022-08-24T07:35:09.871Z,21.02
2022-08-24T07:36:09.858Z,21.14
2022-08-24T07:37:09.864Z,21.21
2022-08-24T07:38:09.863Z,21.20
2022-08-24T07:39:09.870Z,21.29
2022-08-24T07:40:09.920Z,21.30
2022-08-24T07:41:36.633Z,21.43
2022-08-24T07:42:13.344Z,21.51
2022-08-24T07:43:09.879Z,21.42
2022-08-24T07:44:09.877Z,21.48
2022-08-24T07:45:09.882Z,21.57
2022-08-24T07:46:09.973Z,21.61
2022-08-24T07:47:36.410Z,21.67
2022-08-24T07:48:12.719Z,21.73
2022-08-24T07:49:20.299Z,21.85
2022-08-24T07:50:09.896Z,21.85
2022-08-24T07:51:09.897Z,21.93
2022-08-24T07:52:09.898Z,22.02
2022-08-24T07:53:14.885Z,22.07
2022-08-24T07:54:12.139Z,22.00
2022-08-24T07:55:09.904Z,22.20
2022-08-24T07:56:09.906Z,22.15
2022-08-24T07:57:09.913Z,22.23
2022-08-24T07:58:09.912Z,22.18
2022-08-24T07:59:13.225Z,22.39
2022-08-24T08:00:09.925Z,22.35
2022-08-24T08:01:09.981Z,22.45
2022-08-24T08:02:09.923Z,22.43
2022-08-24T08:03:09.953Z,22.55
2022-08-24T08:04:09.927Z,22.59
2022-08-24T08:05:09.933Z,22.63
2022-08-24T08:06:15.930Z,22.70
2022-08-24T08:07:09.942Z,22.76
2022-08-24T08:08:09.942Z,22.87
2022-08-24T08:09:10.402Z,22.83
2022-08-24T08:10:09.945Z,22.90
2022-08-24T08:11:09.952Z,22.87
2022-08-24T08:12:09.956Z,23.00
2022-08-24T08:13:09.956Z,22.91
2022-08-24T08:14:09.960Z,23.06
2022-08-24T08:15:09.966Z,23.12
2022-08-24T08:16:10.090Z,23.13
2022-08-24T08:17:09.977Z,23.17
2022-08-24T08:18:09.976Z,23.12
2022-08-24T08:19:10.631Z,23.17
2022-08-24T08:20:09.989Z,23.25
2022-08-24T08:21:13.777Z,23.28
2022-08-24T08:22:09.992Z,23.31
2022-08-24T08:23:10.001Z,23.41
2022-08-24T08:24:10.001Z,23.43
2022-08-24T08:25:10.005Z,23.44
2022-08-24T08:26:10.009Z,23.47
2022-08-24T08:27:10.019Z,23.50
2022-08-24T08:28:25.396Z,23.46
2022-08-24T08:29:10.028Z,23.50
2022-08-24T08:30:10.031Z,23.58
2022-08-24T08:31:10.095Z,23.58
2022-08-24T08:32:10.059Z,23.69
2022-08-24T08:33:10.052Z,23.69
2022-08-24T08:34:10.063Z,23.71
2022-08-24T08:35:10.063Z,23.69
2022-08-24T08:36:10.063Z,23.71
2022-08-24T08:37:10.069Z,23.69
2022-08-24T08:38:10.076Z,23.76
2022-08-24T08:39:10.083Z,23.69
2022-08-24T08:40:10.126Z,23.74
2022-08-24T08:41:10.551Z,23.71
2022-08-24T08:42:10.092Z,23.66
2022-08-24T08:43:10.104Z,23.68
2022-08-24T08:44:10.105Z,23.71
2022-08-24T08:45:10.110Z,23.62
2022-08-24T08:46:10.209Z,23.66
2022-08-24T08:47:10.117Z,23.69
2022-08-24T08:48:10.122Z,23.66
2022-08-24T08:49:10.127Z,23.63
2022-08-24T08:50:10.131Z,23.69
2022-08-24T08:51:12.161Z,23.68
2022-08-24T08:52:10.140Z,23.80
2022-08-24T08:53:10.146Z,23.74
2022-08-24T08:54:10.151Z,23.78
2022-08-24T08:55:10.167Z,23.73
2022-08-24T08:56:10.164Z,23.69
2022-08-24T08:57:12.172Z,23.68
2022-08-24T08:58:10.170Z,23.68
2022-08-24T08:59:10.175Z,23.66
2022-08-24T09:00:10.183Z,23.62
2022-08-24T09:01:10.243Z,23.59
2022-08-24T09:02:10.185Z,23.62
2022-08-24T09:03:10.238Z,23.61
2022-08-24T09:04:12.712Z,23.59
2022-08-24T09:05:10.199Z,23.59
2022-08-24T09:06:10.256Z,23.59
2022-08-24T09:07:10.208Z,23.59
2022-08-24T09:08:10.212Z,23.54
2022-08-24T09:09:10.416Z,23.59
2022-08-24T09:10:10.226Z,23.61
2022-08-24T09:11:10.223Z,23.58
2022-08-24T09:12:10.229Z,23.63
2022-08-24T09:13:10.234Z,23.73
2022-08-24T09:14:10.246Z,23.76
2022-08-24T09:15:10.246Z,23.78
2022-08-24T09:16:10.973Z,23.77
2022-08-24T09:17:13.129Z,23.87
2022-08-24T09:18:10.257Z,23.92
2022-08-24T09:19:10.261Z,23.91
2022-08-24T09:20:10.265Z,23.96
2022-08-24T09:21:10.267Z,24.02
2022-08-24T09:22:10.269Z,24.05
2022-08-24T09:23:10.362Z,24.02
2022-08-24T09:24:10.277Z,24.02
2022-08-24T09:25:10.280Z,24.13
2022-08-24T09:26:10.285Z,24.11
2022-08-24T09:27:10.289Z,24.16
2022-08-24T09:28:10.301Z,24.11
2022-08-24T09:29:10.295Z,24.06
2022-08-24T09:30:10.301Z,24.05
2022-08-24T09:31:10.435Z,24.02
2022-08-24T09:32:11.425Z,24.01
2022-08-24T09:33:10.588Z,24.02
2022-08-24T09:34:10.312Z,24.06
2022-08-24T09:35:10.314Z,24.03
2022-08-24T09:36:10.322Z,24.03
2022-08-24T09:37:10.324Z,24.06
2022-08-24T09:38:10.329Z,24.03
2022-08-24T09:39:10.329Z,23.99
2022-08-24T09:40:10.380Z,23.92
2022-08-24T09:41:10.337Z,23.92
2022-08-24T09:42:10.341Z,23.92
2022-08-24T09:43:10.343Z,24.01
2022-08-24T09:44:10.355Z,24.10
2022-08-24T09:45:10.356Z,24.16
2022-08-24T09:46:10.399Z,24.30
2022-08-24T09:47:10.361Z,24.38
2022-08-24T09:48:16.046Z,24.48
2022-08-24T09:49:14.133Z,24.65
2022-08-24T09:50:10.373Z,24.73
2022-08-24T09:51:10.374Z,24.73
2022-08-24T09:52:10.382Z,24.70
2022-08-24T09:53:10.386Z,24.70
2022-08-24T09:54:10.398Z,24.68
2022-08-24T09:55:10.390Z,24.55
2022-08-24T09:56:10.397Z,24.55
2022-08-24T09:57:12.592Z,24.50
2022-08-24T09:58:10.451Z,24.47
2022-08-24T09:59:10.406Z,24.36
2022-08-24T10:00:10.420Z,24.42
2022-08-24T10:01:10.494Z,24.33
2022-08-24T10:02:10.478Z,24.39
2022-08-24T10:03:10.420Z,24.50
2022-08-24T10:04:10.425Z,24.53
2022-08-24T10:05:10.535Z,24.66
2022-08-24T10:06:10.528Z,24.55
2022-08-24T10:07:10.437Z,24.74
2022-08-24T10:08:10.442Z,24.91
2022-08-24T10:09:10.442Z,25.06
2022-08-24T10:10:10.445Z,25.07
2022-08-24T10:11:10.453Z,25.14
2022-08-24T10:12:10.458Z,25.14
2022-08-24T10:13:10.459Z,25.11
2022-08-24T10:14:10.460Z,25.06
2022-08-24T10:15:10.467Z,25.10
2022-08-24T10:16:10.494Z,25.08
2022-08-24T10:17:10.471Z,25.01
2022-08-24T10:18:10.476Z,25.03
2022-08-24T10:19:10.479Z,25.01
2022-08-24T10:20:10.488Z,25.04
2022-08-24T10:21:10.489Z,24.98
2022-08-24T10:22:10.492Z,25.04
2022-08-24T10:23:10.494Z,24.99
2022-08-24T10:24:10.499Z,25.06
2022-08-24T10:25:10.505Z,25.10
2022-08-24T10:26:10.512Z,25.14
2022-08-24T10:27:10.516Z,25.23
2022-08-24T10:28:10.519Z,25.35
2022-08-24T10:29:10.518Z,25.38
2022-08-24T10:30:10.531Z,25.41
2022-08-24T10:31:12.953Z,25.40
2022-08-24T10:32:10.534Z,25.55
2022-08-24T10:33:10.538Z,25.48
2022-08-24T10:34:10.540Z,25.65
2022-08-24T10:35:10.541Z,25.69
2022-08-24T10:36:10.544Z,25.80
2022-08-24T10:37:10.547Z,25.88
2022-08-24T10:38:10.554Z,25.90
2022-08-24T10:39:10.557Z,25.99
2022-08-24T10:40:10.587Z,26.05
2022-08-24T10:41:10.564Z,25.96
2022-08-24T10:42:10.724Z,25.87
2022-08-24T10:43:10.573Z,25.93
2022-08-24T10:44:10.583Z,25.93
2022-08-24T10:45:10.581Z,25.80
2022-08-24T10:46:10.695Z,25.68
2022-08-24T10:47:10.587Z,25.66
2022-08-24T10:48:10.600Z,25.48
2022-08-24T10:49:10.597Z,25.53
2022-08-24T10:50:10.603Z,25.50
2022-08-24T10:51:10.607Z,25.48
2022-08-24T10:52:10.610Z,25.44
2022-08-24T10:53:10.611Z,25.43
2022-08-24T10:54:10.620Z,25.48
2022-08-24T10:55:10.622Z,25.38
2022-08-24T10:56:10.627Z,25.29
2022-08-24T10:57:12.450Z,25.29
2022-08-24T10:58:10.633Z,25.31
2022-08-24T10:59:10.636Z,25.26
2022-08-24T11:00:10.643Z,25.31
2022-08-24T11:01:11.086Z,25.31
2022-08-24T11:02:12.681Z,25.16
2022-08-24T11:03:10.654Z,25.31
2022-08-24T11:04:10.659Z,25.31
2022-08-24T11:05:10.666Z,25.33
2022-08-24T11:06:10.671Z,25.40
2022-08-24T11:07:10.672Z,25.36
2022-08-24T11:08:10.675Z,25.50
2022-08-24T11:09:10.884Z,25.66
2022-08-24T11:10:10.688Z,25.63
2022-08-24T11:11:10.713Z,25.66
2022-08-24T11:12:10.697Z,25.69
2022-08-24T11:13:10.697Z,25.84
2022-08-24T11:14:10.701Z,25.87
2022-08-24T11:15:10.704Z,25.81
2022-08-24T11:16:10.747Z,25.84
2022-08-24T11:17:10.713Z,25.87
2022-08-24T11:18:10.719Z,25.88
2022-08-24T11:19:10.720Z,25.87
2022-08-24T11:20:10.727Z,25.81
2022-08-24T11:21:10.731Z,25.87
2022-08-24T11:22:10.740Z,25.93
2022-08-24T11:23:10.745Z,26.03
2022-08-24T11:24:10.754Z,25.99
2022-08-24T11:25:10.754Z,26.02
2022-08-24T11:26:10.752Z,26.03
2022-08-24T11:27:10.756Z,26.18
2022-08-24T11:28:10.769Z,26.18
2022-08-24T11:29:10.767Z,26.16
2022-08-24T11:30:10.773Z,26.21
2022-08-24T11:31:10.861Z,26.26
2022-08-24T11:32:10.780Z,26.18
2022-08-24T11:33:10.783Z,26.29
2022-08-24T11:34:10.789Z,26.25
2022-08-24T11:35:10.790Z,26.26
2022-08-24T11:36:10.800Z,26.22
2022-08-24T11:37:10.858Z,26.18
2022-08-24T11:38:10.809Z,26.16
2022-08-24T11:39:10.809Z,26.18
2022-08-24T11:40:10.950Z,26.19
2022-08-24T11:41:10.820Z,26.25
2022-08-24T11:42:10.826Z,26.37
2022-08-24T11:43:10.825Z,26.47
2022-08-24T11:44:10.835Z,26.47
2022-08-24T11:45:10.839Z,26.65
2022-08-24T11:46:10.848Z,26.62
2022-08-24T11:47:10.846Z,26.65
2022-08-24T11:48:12.360Z,26.59
2022-08-24T11:49:10.856Z,26.63
2022-08-24T11:50:10.866Z,26.65
2022-08-24T11:51:10.874Z,26.55
2022-08-24T11:52:10.870Z,26.59
2022-08-24T11:53:12.319Z,26.56
2022-08-24T11:54:10.878Z,26.45
2022-08-24T11:55:10.880Z,26.45
2022-08-24T11:56:10.893Z,26.38
2022-08-24T11:57:10.898Z,26.36
2022-08-24T11:58:10.918Z,26.28
2022-08-24T11:59:10.900Z,26.26
2022-08-24T12:00:10.965Z,26.10
2022-08-24T12:01:10.910Z,26.10
2022-08-24T12:02:11.186Z,26.06
2022-08-24T12:03:11.086Z,26.03
2022-08-24T12:04:10.927Z,25.90
2022-08-24T12:05:10.928Z,25.96
2022-08-24T12:06:10.937Z,25.87
2022-08-24T12:07:10.936Z,25.83
2022-08-24T12:08:10.941Z,25.90
2022-08-24T12:09:11.296Z,25.90
2022-08-24T12:10:10.951Z,25.90
2022-08-24T12:11:10.952Z,26.03
2022-08-24T12:12:10.961Z,26.18
2022-08-24T12:13:10.964Z,26.15
2022-08-24T12:14:10.967Z,26.19
2022-08-24T12:15:11.109Z,26.18
2022-08-24T12:16:11.112Z,26.15
2022-08-24T12:17:10.984Z,26.06
2022-08-24T12:18:10.985Z,26.07
2022-08-24T12:19:10.994Z,26.00
2022-08-24T12:20:11.000Z,26.00
2022-08-24T12:21:12.789Z,26.07
2022-08-24T12:22:11.006Z,26.09
2022-08-24T12:23:11.009Z,25.91
2022-08-24T12:24:11.014Z,25.91
2022-08-24T12:25:11.020Z,25.91
2022-08-24T12:26:11.023Z,25.93
2022-08-24T12:27:11.028Z,25.83
2022-08-24T12:28:11.048Z,25.77
2022-08-24T12:29:11.039Z,25.80
2022-08-24T12:30:11.049Z,25.73
2022-08-24T12:31:11.117Z,25.68
2022-08-24T12:32:11.051Z,25.70
2022-08-24T12:33:11.057Z,25.63
2022-08-24T12:34:11.061Z,25.66
2022-08-24T12:35:11.065Z,25.60
2022-08-24T12:36:11.074Z,25.55
2022-08-24T12:37:16.570Z,25.51
2022-08-24T12:38:11.082Z,25.46
2022-08-24T12:39:11.085Z,25.62
2022-08-24T12:40:11.371Z,25.65
2022-08-24T12:41:19.083Z,25.70
2022-08-24T12:42:15.753Z,25.66
2022-08-24T12:43:11.106Z,25.72
2022-08-24T12:44:11.115Z,25.58
2022-08-24T12:45:11.112Z,25.54
2022-08-24T12:46:11.172Z,25.59
2022-08-24T12:47:13.451Z,25.62
2022-08-24T12:48:11.130Z,25.70
2022-08-24T12:49:11.132Z,25.72
2022-08-24T12:50:11.138Z,25.75
2022-08-24T12:51:11.141Z,25.81
2022-08-24T12:52:11.146Z,25.84